createdAt,value
2018-07-23T07:47:44.583Z,1.00
2018-07-23T07:50:12.731Z,1.00
2018-07-23T07:52:40.746Z,1.00
2018-07-23T07:55:08.810Z,99.90
2018-07-23T07:57:36.830Z,1.00
2018-07-23T08:00:05.029Z,1.00
2018-07-23T08:02:33.060Z,1.00
2018-07-23T08:05:01.118Z,1.00
2018-07-23T08:07:29.173Z,31.50
2018-07-23T08:09:57.234Z,1.00
2018-07-23T08:12:25.303Z,1.00
2018-07-23T08:14:53.272Z,1.00
2018-07-23T08:17:21.442Z,1.00
2018-07-23T08:19:49.793Z,1.00
2018-07-23T09:44:15.778Z,1.00
2018-07-23T09:46:43.838Z,1.00
2018-07-23T09:49:11.889Z,1.00
2018-07-23T09:51:39.909Z,1.00
2018-07-23T09:54:19.664Z,1.00
2018-07-23T09:56:47.778Z,1.00
2018-07-23T09:59:15.813Z,1.00
2018-07-23T10:01:43.880Z,99.90
2018-07-23T10:04:11.894Z,99.90
2018-07-23T10:06:39.933Z,99.90
2018-07-23T10:09:09.892Z,1.00
2018-07-23T10:11:37.992Z,99.90
2018-07-23T10:14:06.161Z,99.90
2018-07-23T10:16:34.198Z,99.90
2018-07-23T10:19:02.285Z,99.90
2018-07-23T10:21:38.869Z,99.90
2018-07-23T10:24:07.246Z,1.00
2018-07-23T10:26:35.350Z,99.90
2018-07-23T10:29:03.362Z,99.90
2018-07-23T10:31:31.418Z,99.90
2018-07-23T10:33:59.465Z,99.90
2018-07-23T10:36:27.518Z,99.90
2018-07-23T10:38:55.964Z,99.90
2018-07-23T10:41:24.057Z,99.90
2018-07-23T10:43:52.114Z,99.90
2018-07-23T10:46:20.176Z,99.90
2018-07-23T10:48:48.293Z,99.90
2018-07-23T10:51:27.367Z,99.90
2018-07-23T10:53:55.825Z,99.90
2018-07-23T10:56:23.986Z,99.90
2018-07-23T10:58:52.040Z,99.90
2018-07-23T11:01:20.095Z,99.90
2018-07-23T11:03:48.250Z,99.90
2018-07-23T11:06:16.323Z,99.90
2018-07-23T11:08:44.484Z,99.90
2018-07-23T11:11:12.513Z,99.90
2018-07-23T11:13:40.639Z,99.90
2018-07-23T11:16:08.685Z,99.90
2018-07-23T11:18:36.825Z,99.90
2018-07-23T11:21:04.932Z,99.90
2018-07-23T11:23:32.940Z,99.90
2018-07-23T11:26:01.095Z,99.90
2018-07-23T11:28:29.266Z,99.90
2018-07-23T11:30:57.325Z,99.90
2018-07-23T11:33:25.498Z,99.90
2018-07-23T11:35:53.619Z,99.90
2018-07-23T11:38:21.669Z,99.90
2018-07-23T11:40:49.790Z,99.90
2018-07-23T11:43:17.868Z,99.90
2018-07-23T11:45:45.888Z,99.90
2018-07-23T11:48:13.949Z,99.90
2018-07-23T11:50:41.975Z,99.90
2018-07-23T11:53:10.055Z,99.90
2018-07-23T11:55:38.182Z,99.90
2018-07-23T11:58:06.333Z,99.90
2018-07-23T12:00:34.451Z,99.90
2018-07-23T12:03:02.502Z,99.90
2018-07-23T12:05:30.700Z,99.90
2018-07-23T12:07:58.841Z,99.90
2018-07-23T12:10:26.946Z,99.90
2018-07-23T12:12:55.019Z,99.90
2018-07-23T12:15:23.058Z,99.90
2018-07-23T12:17:51.127Z,99.90
2018-07-23T12:20:19.194Z,99.90
2018-07-23T12:22:47.357Z,99.90
2018-07-23T12:25:15.475Z,99.90
2018-07-23T12:27:43.641Z,99.90
2018-07-23T12:30:11.698Z,99.90
2018-07-23T12:32:39.773Z,99.90
2018-07-23T12:35:07.888Z,99.90
2018-07-23T12:37:36.565Z,99.90
2018-07-23T12:40:04.639Z,99.90
2018-07-23T12:42:32.687Z,99.90
2018-07-23T12:45:00.766Z,99.90
2018-07-23T12:47:28.819Z,99.90
2018-07-23T12:49:56.857Z,99.90
2018-07-23T12:52:25.025Z,99.90
2018-07-23T12:54:53.197Z,99.90
2018-07-23T12:57:21.237Z,99.90
2018-07-23T12:59:49.343Z,99.90
2018-07-23T13:02:17.338Z,99.90
2018-07-23T13:04:45.348Z,99.90
2018-07-23T13:07:13.602Z,99.90
2018-07-23T13:09:41.734Z,99.90
2018-07-23T13:12:09.833Z,99.90
2018-07-23T13:14:37.861Z,99.90
2018-07-23T13:17:06.047Z,99.90
2018-07-23T13:19:34.071Z,99.90
2018-07-23T13:22:02.294Z,99.90
2018-07-23T13:24:30.358Z,99.90
2018-07-23T13:26:58.477Z,99.90
2018-07-23T13:29:26.510Z,99.90
2018-07-23T13:31:54.815Z,99.90
2018-07-23T13:34:23.015Z,99.90
2018-07-23T13:36:51.224Z,99.90
2018-07-23T13:39:19.278Z,99.90
2018-07-23T13:41:47.319Z,99.90
2018-07-23T13:44:15.393Z,99.90
2018-07-23T13:46:43.482Z,99.90
2018-07-23T13:49:11.606Z,99.90
2018-07-23T13:51:39.763Z,99.90
2018-07-23T13:54:07.783Z,99.90
2018-07-23T13:56:36.090Z,99.90
2018-07-23T13:59:04.118Z,99.90
2018-07-23T14:01:32.203Z,99.90
2018-07-23T14:04:00.275Z,99.90
2018-07-23T14:06:28.344Z,99.90
2018-07-23T14:08:56.417Z,99.90
2018-07-23T14:11:24.585Z,99.90
2018-07-23T14:13:52.678Z,99.90
2018-07-23T14:16:20.857Z,99.90
2018-07-23T14:18:48.899Z,99.90
2018-07-23T14:21:16.949Z,99.90
2018-07-23T14:23:45.084Z,99.90
2018-07-23T14:26:13.105Z,99.90
2018-07-23T14:28:41.145Z,99.90
2018-07-23T14:31:09.197Z,99.90
2018-07-23T14:33:37.357Z,99.90
2018-07-23T14:36:05.386Z,99.90
2018-07-23T14:38:33.504Z,99.90
2018-07-23T14:41:01.509Z,99.90
2018-07-23T14:43:29.594Z,99.90
2018-07-23T14:45:57.682Z,99.90
2018-07-23T14:48:25.826Z,99.90
2018-07-23T14:53:21.765Z,99.90
2018-07-23T14:55:49.804Z,99.90
2018-07-23T14:58:17.837Z,99.90
2018-07-23T15:00:45.893Z,99.90
2018-07-23T15:03:14.537Z,99.90
2018-07-23T15:08:11.072Z,99.90
2018-07-23T15:10:39.315Z,99.90
2018-07-23T15:13:07.425Z,99.90
2018-07-23T15:15:35.546Z,99.90
2018-07-23T15:18:03.634Z,99.90
2018-07-23T15:20:31.725Z,99.90
2018-07-23T15:22:59.806Z,99.90
2018-07-23T15:25:27.854Z,99.90
2018-07-23T15:27:55.917Z,99.90
2018-07-23T15:30:23.971Z,99.90
2018-07-23T15:35:19.854Z,99.90
2018-07-23T15:37:48.789Z,99.90
2018-07-23T15:40:16.874Z,99.90
2018-07-23T15:42:44.966Z,99.90
2018-07-23T15:45:13.163Z,99.90
2018-07-23T15:47:41.137Z,99.90
2018-07-23T15:50:09.276Z,99.90
2018-07-23T15:52:37.793Z,99.90
2018-07-23T15:55:05.921Z,99.90
2018-07-23T15:57:33.980Z,99.90
2018-07-23T16:00:02.121Z,99.90
2018-07-23T16:02:30.349Z,99.90
2018-07-23T16:04:58.432Z,99.90
2018-07-23T16:07:26.931Z,99.90
2018-07-23T16:09:54.948Z,99.90
2018-07-23T16:14:51.214Z,99.90
2018-07-23T16:17:19.234Z,99.90
2018-07-23T16:19:47.261Z,99.90
2018-07-23T16:22:15.413Z,99.90
2018-07-23T16:24:43.483Z,99.90
2018-07-23T16:27:11.652Z,99.90
2018-07-23T16:29:39.900Z,99.90
2018-07-23T16:32:08.164Z,99.90
2018-07-23T16:34:36.348Z,99.90
2018-07-23T16:37:04.500Z,99.90
2018-07-23T16:39:32.625Z,99.90
2018-07-23T16:42:00.665Z,99.90
2018-07-23T16:46:57.050Z,99.90
2018-07-23T16:49:25.111Z,99.90
2018-07-23T16:54:21.114Z,99.90
2018-07-23T16:56:49.201Z,99.90
2018-07-23T16:59:17.258Z,99.90
2018-07-23T17:01:45.356Z,99.90
2018-07-23T17:04:13.467Z,99.90
2018-07-23T17:06:41.652Z,99.90
2018-07-23T17:09:11.228Z,99.90
2018-07-23T17:11:39.272Z,99.90
2018-07-23T17:14:07.571Z,99.90
2018-07-23T17:16:35.620Z,99.90
2018-07-23T17:19:03.701Z,99.90
2018-07-23T17:21:31.861Z,99.90
2018-07-23T17:23:59.960Z,99.90
2018-07-23T17:26:27.971Z,99.90
2018-07-23T17:28:56.398Z,99.90
2018-07-23T17:31:24.488Z,99.90
2018-07-23T17:33:52.712Z,99.90
2018-07-23T17:36:21.857Z,99.90
2018-07-23T17:38:50.857Z,99.90
2018-07-23T17:41:19.009Z,99.90
2018-07-23T17:43:48.062Z,99.90
2018-07-23T17:46:16.587Z,99.90
2018-07-23T17:48:44.651Z,99.90
2018-07-23T17:51:12.660Z,99.90
2018-07-23T17:53:40.747Z,99.90
2018-07-23T17:56:08.930Z,99.90
2018-07-23T17:58:38.382Z,99.90
2018-07-23T18:01:06.533Z,99.90
2018-07-23T18:03:34.678Z,99.90
2018-07-23T18:06:02.948Z,99.90
2018-07-23T18:08:31.029Z,99.90
2018-07-23T18:10:59.056Z,99.90
2018-07-23T18:13:27.236Z,99.90
2018-07-23T18:15:55.301Z,99.90
2018-07-23T18:18:23.436Z,99.90
2018-07-23T18:20:51.853Z,99.90
2018-07-23T18:23:20.201Z,99.90
2018-07-23T18:25:48.233Z,99.90
2018-07-23T18:28:16.364Z,99.90
2018-07-23T18:30:44.450Z,99.90
2018-07-23T18:33:12.541Z,99.90
2018-07-23T18:35:40.616Z,99.90
2018-07-23T18:40:36.621Z,99.90
2018-07-23T18:43:04.692Z,99.90
2018-07-23T18:45:32.795Z,99.90
2018-07-23T18:48:00.986Z,99.90
2018-07-23T18:50:29.029Z,99.90
2018-07-23T18:52:57.157Z,99.90
2018-07-23T18:55:25.177Z,99.90
2018-07-23T19:00:21.080Z,99.90
2018-07-23T19:02:49.261Z,99.90
2018-07-23T19:05:17.403Z,99.90
2018-07-23T19:07:45.624Z,99.90
2018-07-23T19:10:13.870Z,99.90
2018-07-23T19:12:41.905Z,99.90
2018-07-23T19:15:09.941Z,99.90
2018-07-23T19:17:37.988Z,99.90
2018-07-23T19:20:06.047Z,99.90
2018-07-23T19:22:34.229Z,99.90
2018-07-23T19:25:02.241Z,99.90
2018-07-23T19:27:30.400Z,99.90
2018-07-23T19:29:58.437Z,99.90
2018-07-23T19:32:26.462Z,99.90
2018-07-23T19:34:54.575Z,99.90
2018-07-23T19:37:22.704Z,99.90
2018-07-23T19:39:50.745Z,99.90
2018-07-23T19:42:18.825Z,99.90
2018-07-23T19:44:47.870Z,99.90
2018-07-23T19:47:15.890Z,99.90
2018-07-23T19:49:43.922Z,99.90
2018-07-23T19:52:11.997Z,99.90
2018-07-23T19:54:40.204Z,99.90
2018-07-23T19:57:08.227Z,99.90
2018-07-23T19:59:36.397Z,99.90
2018-07-23T20:02:04.491Z,99.90
2018-07-23T20:04:33.541Z,99.90
2018-07-23T20:07:01.593Z,99.90
2018-07-23T20:09:29.744Z,99.90
2018-07-23T20:11:57.812Z,99.90
2018-07-23T20:14:25.872Z,99.90
2018-07-23T20:16:53.948Z,1.00
2018-07-23T20:19:22.120Z,1.00
2018-07-23T20:21:50.171Z,1.00
2018-07-23T20:24:18.221Z,1.00
2018-07-23T20:26:46.253Z,1.00
2018-07-23T20:29:14.297Z,1.00
2018-07-23T20:31:42.350Z,1.00
2018-07-23T20:34:10.429Z,1.00
2018-07-23T20:36:38.807Z,99.90
2018-07-23T20:39:07.744Z,99.90
2018-07-23T20:41:35.813Z,99.90
2018-07-23T20:44:03.893Z,1.00
2018-07-23T20:46:31.932Z,1.00
2018-07-23T21:28:26.013Z,1.00
2018-07-23T21:30:54.043Z,99.90
2018-07-23T21:33:22.046Z,99.90
2018-07-23T21:35:50.097Z,99.90
2018-07-23T21:38:18.140Z,1.00
2018-07-23T21:40:46.184Z,99.90
2018-07-23T21:43:14.192Z,1.00
2018-07-23T21:45:42.324Z,99.90
2018-07-23T21:48:10.349Z,99.90
2018-07-23T21:50:38.392Z,1.00
2018-07-23T21:53:06.436Z,99.90
2018-07-23T21:55:34.478Z,99.90
2018-07-23T21:58:02.588Z,99.90
2018-07-23T22:00:31.404Z,99.90
2018-07-23T22:02:59.380Z,99.90
2018-07-23T22:05:27.421Z,1.00
2018-07-23T22:07:55.477Z,99.90
2018-07-23T22:10:23.476Z,99.90
2018-07-23T22:12:51.539Z,1.00
2018-07-23T22:15:19.561Z,99.90
2018-07-23T22:17:47.549Z,1.00
2018-07-23T22:20:15.557Z,1.00
2018-07-23T22:22:43.573Z,1.00
2018-07-23T22:25:11.624Z,27.50
2018-07-23T22:27:39.668Z,19.80
2018-07-23T22:30:07.797Z,7.20
2018-07-23T22:32:35.818Z,99.90
2018-07-23T22:35:03.921Z,99.90
2018-07-23T22:37:32.025Z,99.90
2018-07-23T22:40:00.086Z,99.90
2018-07-23T22:42:28.168Z,99.90
2018-07-23T22:44:56.189Z,99.90
2018-07-23T22:47:24.227Z,1.00
2018-07-23T22:49:52.377Z,1.00
2018-07-23T22:52:20.450Z,1.00
2018-07-23T22:54:48.480Z,1.00
2018-07-23T22:59:44.433Z,1.00
2018-07-23T23:02:12.458Z,41.70
2018-07-23T23:04:40.572Z,21.70
2018-07-23T23:07:08.648Z,99.90
2018-07-23T23:09:36.815Z,59.50
2018-07-23T23:12:04.841Z,95.30
2018-07-23T23:14:32.844Z,99.90
2018-07-23T23:17:01.133Z,99.90
2018-07-23T23:19:29.371Z,99.90
2018-07-23T23:21:57.392Z,99.90
2018-07-23T23:24:25.427Z,99.90
2018-07-23T23:26:53.800Z,99.90
2018-07-23T23:29:21.848Z,99.90
2018-07-23T23:31:49.876Z,99.90
2018-07-23T23:34:17.994Z,99.90
2018-07-23T23:36:46.110Z,99.90
2018-07-23T23:39:14.122Z,99.90
2018-07-23T23:41:42.153Z,99.90
2018-07-23T23:44:10.268Z,99.90
2018-07-23T23:46:38.300Z,99.90
2018-07-23T23:49:06.453Z,99.90
2018-07-23T23:51:34.480Z,99.90
2018-07-23T23:54:02.776Z,99.90
2018-07-23T23:56:30.938Z,99.90
2018-07-23T23:58:58.933Z,99.90
